Terminal Aerodrome Forecast
Issued by NWS

Home | Current Version | Previous Version | Text Only | Print | Product List | Glossary On
Versions: 1 2 3 4 5 6 7 8 9 10 11 12 13 14 15 16 17 18 19 20 21 22 23 24 25 26 27 28 29 30 31 32 33 34 35 36 37 38 39 40 41 42 43 44 45 46 47 48 49 50
046
FTUS44 KHGX 260520
TAFUTS
TAF
KUTS 260520Z 2606/2706 32003KT P6SM OVC002
      TEMPO 2611/2614 4SM BR
     FM261400 35007KT P6SM VCSH BKN015
     FM262100 01006KT P6SM SCT020 BKN150
     FM270100 VRB03KT P6SM BKN040=

USA.gov is the U.S. government's official web portal to all federal, state and local government web resources and services.